sensor_id;sensor_type;location;lat;lon;timestamp;temperature;humidity
23637;DHT22;11995;50.842;4.456;2022-10-16T00:01:17;14.60;99.90
23637;DHT22;11995;50.842;4.456;2022-10-16T00:03:45;14.60;99.90
23637;DHT22;11995;50.842;4.456;2022-10-16T00:06:12;14.50;99.90
23637;DHT22;11995;50.842;4.456;2022-10-16T00:08:39;14.60;99.90
23637;DHT22;11995;50.842;4.456;2022-10-16T00:11:08;14.60;99.90
23637;DHT22;11995;50.842;4.456;2022-10-16T00:13:35;14.70;99.90
23637;DHT22;11995;50.842;4.456;2022-10-16T00:16:02;14.60;99.90
23637;DHT22;11995;50.842;4.456;2022-10-16T00:18:29;14.20;99.90
23637;DHT22;11995;50.842;4.456;2022-10-16T00:21:01;14.40;99.90
23637;DHT22;11995;50.842;4.456;2022-10-16T00:23:25;14.40;99.90
23637;DHT22;11995;50.842;4.456;2022-10-16T00:25:58;14.20;99.90
23637;DHT22;11995;50.842;4.456;2022-10-16T00:28:25;14.10;99.90
23637;DHT22;11995;50.842;4.456;2022-10-16T00:30:53;14.20;99.90
23637;DHT22;11995;50.842;4.456;2022-10-16T00:33:19;14.10;99.90
23637;DHT22;11995;50.842;4.456;2022-10-16T00:35:46;14.30;99.90
23637;DHT22;11995;50.842;4.456;2022-10-16T00:38:13;14.20;99.90
23637;DHT22;11995;50.842;4.456;2022-10-16T00:40:40;14.30;99.90
23637;DHT22;11995;50.842;4.456;2022-10-16T00:43:12;14.40;99.90
23637;DHT22;11995;50.842;4.456;2022-10-16T00:45:35;14.30;99.90
23637;DHT22;11995;50.842;4.456;2022-10-16T00:48:02;14.20;99.90
23637;DHT22;11995;50.842;4.456;2022-10-16T00:50:33;14.20;99.90
23637;DHT22;11995;50.842;4.456;2022-10-16T00:53:00;14.30;99.90
23637;DHT22;11995;50.842;4.456;2022-10-16T00:55:28;14.20;99.90
23637;DHT22;11995;50.842;4.456;2022-10-16T00:57:56;14.20;99.90
23637;DHT22;11995;50.842;4.456;2022-10-16T01:00:25;14.30;99.90
23637;DHT22;11995;50.842;4.456;2022-10-16T01:02:56;14.30;99.90
23637;DHT22;11995;50.842;4.456;2022-10-16T01:05:23;14.20;99.90
23637;DHT22;11995;50.842;4.456;2022-10-16T01:10:48;14.10;99.90
23637;DHT22;11995;50.842;4.456;2022-10-16T01:13:15;14.20;99.90
23637;DHT22;11995;50.842;4.456;2022-10-16T01:15:54;14.00;99.90
23637;DHT22;11995;50.842;4.456;2022-10-16T01:20:50;14.10;99.90
23637;DHT22;11995;50.842;4.456;2022-10-16T01:25:57;14.10;99.90
23637;DHT22;11995;50.842;4.456;2022-10-16T01:28:23;14.10;99.90
23637;DHT22;11995;50.842;4.456;2022-10-16T01:30:51;14.20;99.90
23637;DHT22;11995;50.842;4.456;2022-10-16T01:33:28;14.00;99.90
23637;DHT22;11995;50.842;4.456;2022-10-16T01:35:54;14.00;99.90
23637;DHT22;11995;50.842;4.456;2022-10-16T01:38:28;14.00;99.90
23637;DHT22;11995;50.842;4.456;2022-10-16T01:40:55;14.00;99.90
23637;DHT22;11995;50.842;4.456;2022-10-16T01:43:28;14.10;99.90
23637;DHT22;11995;50.842;4.456;2022-10-16T01:45:51;14.10;99.90
23637;DHT22;11995;50.842;4.456;2022-10-16T01:48:18;14.10;99.90
23637;DHT22;11995;50.842;4.456;2022-10-16T01:50:50;14.10;99.90
23637;DHT22;11995;50.842;4.456;2022-10-16T01:53:14;14.00;99.90
23637;DHT22;11995;50.842;4.456;2022-10-16T01:55:43;14.10;99.90
23637;DHT22;11995;50.842;4.456;2022-10-16T01:58:11;14.20;99.90
23637;DHT22;11995;50.842;4.456;2022-10-16T02:00:39;14.10;99.90
23637;DHT22;11995;50.842;4.456;2022-10-16T02:03:06;14.10;99.90
23637;DHT22;11995;50.842;4.456;2022-10-16T02:05:34;13.90;99.90
23637;DHT22;11995;50.842;4.456;2022-10-16T02:08:02;14.00;99.90
23637;DHT22;11995;50.842;4.456;2022-10-16T02:10:29;14.00;99.90
23637;DHT22;11995;50.842;4.456;2022-10-16T02:13:04;14.20;99.90
23637;DHT22;11995;50.842;4.456;2022-10-16T02:15:28;14.10;99.90
23637;DHT22;11995;50.842;4.456;2022-10-16T02:17:55;14.10;99.90
23637;DHT22;11995;50.842;4.456;2022-10-16T02:20:22;13.90;99.90
23637;DHT22;11995;50.842;4.456;2022-10-16T02:22:50;14.10;99.90
23637;DHT22;11995;50.842;4.456;2022-10-16T02:25:25;14.00;99.90
23637;DHT22;11995;50.842;4.456;2022-10-16T02:28:04;14.00;99.90
23637;DHT22;11995;50.842;4.456;2022-10-16T02:30:35;14.00;99.90
23637;DHT22;11995;50.842;4.456;2022-10-16T02:33:02;14.00;99.90
23637;DHT22;11995;50.842;4.456;2022-10-16T02:35:30;14.10;99.90
23637;DHT22;11995;50.842;4.456;2022-10-16T02:37:58;14.00;99.90
23637;DHT22;11995;50.842;4.456;2022-10-16T02:40:25;14.00;99.90
23637;DHT22;11995;50.842;4.456;2022-10-16T02:42:53;13.90;99.90
23637;DHT22;11995;50.842;4.456;2022-10-16T02:45:21;13.90;99.90
23637;DHT22;11995;50.842;4.456;2022-10-16T02:47:48;13.90;99.90
23637;DHT22;11995;50.842;4.456;2022-10-16T02:50:15;14.00;99.90
23637;DHT22;11995;50.842;4.456;2022-10-16T02:52:42;14.10;99.90
23637;DHT22;11995;50.842;4.456;2022-10-16T02:55:09;14.10;99.90
23637;DHT22;11995;50.842;4.456;2022-10-16T02:57:35;14.20;99.90
23637;DHT22;11995;50.842;4.456;2022-10-16T03:00:06;14.20;99.90
23637;DHT22;11995;50.842;4.456;2022-10-16T03:02:33;14.30;99.90
23637;DHT22;11995;50.842;4.456;2022-10-16T03:05:00;14.20;99.90
23637;DHT22;11995;50.842;4.456;2022-10-16T03:07:27;14.20;99.90
23637;DHT22;11995;50.842;4.456;2022-10-16T03:09:53;14.30;99.90
23637;DHT22;11995;50.842;4.456;2022-10-16T03:12:21;14.20;99.90
23637;DHT22;11995;50.842;4.456;2022-10-16T03:14:48;14.20;99.90
23637;DHT22;11995;50.842;4.456;2022-10-16T03:17:15;14.20;99.90
23637;DHT22;11995;50.842;4.456;2022-10-16T03:19:42;14.20;99.90
23637;DHT22;11995;50.842;4.456;2022-10-16T03:22:09;14.20;99.90
23637;DHT22;11995;50.842;4.456;2022-10-16T03:24:36;14.00;99.90
23637;DHT22;11995;50.842;4.456;2022-10-16T03:27:03;14.20;99.90
23637;DHT22;11995;50.842;4.456;2022-10-16T03:29:29;14.10;99.90
23637;DHT22;11995;50.842;4.456;2022-10-16T03:31:57;14.30;99.90
23637;DHT22;11995;50.842;4.456;2022-10-16T03:34:24;14.30;99.90
23637;DHT22;11995;50.842;4.456;2022-10-16T03:36:51;14.20;99.90
23637;DHT22;11995;50.842;4.456;2022-10-16T03:39:18;14.20;99.90
23637;DHT22;11995;50.842;4.456;2022-10-16T03:41:45;14.20;99.90
23637;DHT22;11995;50.842;4.456;2022-10-16T03:44:12;14.20;99.90
23637;DHT22;11995;50.842;4.456;2022-10-16T03:46:39;14.00;99.90
23637;DHT22;11995;50.842;4.456;2022-10-16T03:49:06;14.10;99.90
23637;DHT22;11995;50.842;4.456;2022-10-16T03:51:33;14.00;99.90
23637;DHT22;11995;50.842;4.456;2022-10-16T03:54:00;14.00;99.90
23637;DHT22;11995;50.842;4.456;2022-10-16T03:56:27;14.00;99.90
23637;DHT22;11995;50.842;4.456;2022-10-16T03:58:53;14.20;99.90
23637;DHT22;11995;50.842;4.456;2022-10-16T04:01:20;14.10;99.90
23637;DHT22;11995;50.842;4.456;2022-10-16T04:03:47;14.20;99.90
23637;DHT22;11995;50.842;4.456;2022-10-16T04:06:14;14.20;99.90
23637;DHT22;11995;50.842;4.456;2022-10-16T04:08:42;14.10;99.90
23637;DHT22;11995;50.842;4.456;2022-10-16T04:11:09;13.90;99.90
23637;DHT22;11995;50.842;4.456;2022-10-16T04:13:36;13.90;99.90
23637;DHT22;11995;50.842;4.456;2022-10-16T04:16:03;14.00;99.90
23637;DHT22;11995;50.842;4.456;2022-10-16T04:18:30;14.00;99.90
23637;DHT22;11995;50.842;4.456;2022-10-16T04:20:57;14.10;99.90
23637;DHT22;11995;50.842;4.456;2022-10-16T04:23:25;14.00;99.90
23637;DHT22;11995;50.842;4.456;2022-10-16T04:25:52;14.20;99.90
23637;DHT22;11995;50.842;4.456;2022-10-16T04:28:19;14.20;99.90
23637;DHT22;11995;50.842;4.456;2022-10-16T04:30:46;14.10;99.90
23637;DHT22;11995;50.842;4.456;2022-10-16T04:33:12;14.00;99.90
23637;DHT22;11995;50.842;4.456;2022-10-16T04:35:39;14.00;99.90
23637;DHT22;11995;50.842;4.456;2022-10-16T04:38:06;14.00;99.90
23637;DHT22;11995;50.842;4.456;2022-10-16T04:40:33;14.00;99.90
23637;DHT22;11995;50.842;4.456;2022-10-16T04:43:02;13.90;99.90
23637;DHT22;11995;50.842;4.456;2022-10-16T04:45:29;13.80;99.90
23637;DHT22;11995;50.842;4.456;2022-10-16T04:47:59;14.00;99.90
23637;DHT22;11995;50.842;4.456;2022-10-16T04:50:26;13.90;99.90
23637;DHT22;11995;50.842;4.456;2022-10-16T04:52:53;14.00;99.90
23637;DHT22;11995;50.842;4.456;2022-10-16T04:55:20;14.00;99.90
23637;DHT22;11995;50.842;4.456;2022-10-16T04:57:47;13.90;99.90
23637;DHT22;11995;50.842;4.456;2022-10-16T05:00:13;13.80;99.90
23637;DHT22;11995;50.842;4.456;2022-10-16T05:02:40;13.90;99.90
23637;DHT22;11995;50.842;4.456;2022-10-16T05:05:07;13.90;99.90
23637;DHT22;11995;50.842;4.456;2022-10-16T05:07:34;13.90;99.90
23637;DHT22;11995;50.842;4.456;2022-10-16T05:10:01;14.00;99.90
23637;DHT22;11995;50.842;4.456;2022-10-16T05:12:28;13.80;99.90
23637;DHT22;11995;50.842;4.456;2022-10-16T05:14:55;13.60;99.90
23637;DHT22;11995;50.842;4.456;2022-10-16T05:17:28;13.70;99.90
23637;DHT22;11995;50.842;4.456;2022-10-16T05:19:52;13.80;99.90
23637;DHT22;11995;50.842;4.456;2022-10-16T05:22:18;14.00;99.90
23637;DHT22;11995;50.842;4.456;2022-10-16T05:24:45;14.00;99.90
23637;DHT22;11995;50.842;4.456;2022-10-16T05:27:12;13.90;99.90
23637;DHT22;11995;50.842;4.456;2022-10-16T05:29:41;13.90;99.90
23637;DHT22;11995;50.842;4.456;2022-10-16T05:32:08;13.80;99.90
23637;DHT22;11995;50.842;4.456;2022-10-16T05:34:34;13.60;99.90
23637;DHT22;11995;50.842;4.456;2022-10-16T05:37:01;13.60;99.90
23637;DHT22;11995;50.842;4.456;2022-10-16T05:39:28;13.70;99.90
23637;DHT22;11995;50.842;4.456;2022-10-16T05:41:55;13.80;99.90
23637;DHT22;11995;50.842;4.456;2022-10-16T05:44:22;13.80;99.90
23637;DHT22;11995;50.842;4.456;2022-10-16T05:46:48;13.70;99.90
23637;DHT22;11995;50.842;4.456;2022-10-16T05:49:15;13.70;99.90
23637;DHT22;11995;50.842;4.456;2022-10-16T05:51:42;13.70;99.90
23637;DHT22;11995;50.842;4.456;2022-10-16T05:54:09;13.70;99.90
23637;DHT22;11995;50.842;4.456;2022-10-16T05:56:36;13.80;99.90
23637;DHT22;11995;50.842;4.456;2022-10-16T05:59:03;13.80;99.90
23637;DHT22;11995;50.842;4.456;2022-10-16T06:01:30;13.60;99.90
23637;DHT22;11995;50.842;4.456;2022-10-16T06:03:58;13.60;99.90
23637;DHT22;11995;50.842;4.456;2022-10-16T06:06:26;13.70;99.90
23637;DHT22;11995;50.842;4.456;2022-10-16T06:08:53;13.70;99.90
23637;DHT22;11995;50.842;4.456;2022-10-16T06:11:22;13.60;99.90
23637;DHT22;11995;50.842;4.456;2022-10-16T06:13:54;13.50;99.90
23637;DHT22;11995;50.842;4.456;2022-10-16T06:16:17;13.50;99.90
23637;DHT22;11995;50.842;4.456;2022-10-16T06:18:44;13.60;99.90
23637;DHT22;11995;50.842;4.456;2022-10-16T06:21:12;13.60;99.90
23637;DHT22;11995;50.842;4.456;2022-10-16T06:23:39;13.50;99.90
23637;DHT22;11995;50.842;4.456;2022-10-16T06:26:09;13.50;99.90
23637;DHT22;11995;50.842;4.456;2022-10-16T06:28:37;13.30;99.90
23637;DHT22;11995;50.842;4.456;2022-10-16T06:31:05;13.40;99.90
23637;DHT22;11995;50.842;4.456;2022-10-16T06:33:32;13.50;99.90
23637;DHT22;11995;50.842;4.456;2022-10-16T06:36:04;13.50;99.90
23637;DHT22;11995;50.842;4.456;2022-10-16T06:38:29;13.50;99.90
23637;DHT22;11995;50.842;4.456;2022-10-16T06:40:56;13.60;99.90
23637;DHT22;11995;50.842;4.456;2022-10-16T06:43:23;13.60;99.90
23637;DHT22;11995;50.842;4.456;2022-10-16T06:45:53;13.60;99.90
23637;DHT22;11995;50.842;4.456;2022-10-16T06:48:20;13.70;99.90
23637;DHT22;11995;50.842;4.456;2022-10-16T06:50:59;13.70;99.90
23637;DHT22;11995;50.842;4.456;2022-10-16T06:53:29;13.90;99.90
23637;DHT22;11995;50.842;4.456;2022-10-16T06:55:55;13.80;99.90
23637;DHT22;11995;50.842;4.456;2022-10-16T06:58:22;13.90;99.90
23637;DHT22;11995;50.842;4.456;2022-10-16T07:00:49;14.00;99.90
23637;DHT22;11995;50.842;4.456;2022-10-16T07:03:15;14.10;99.90
23637;DHT22;11995;50.842;4.456;2022-10-16T07:05:42;14.10;99.90
23637;DHT22;11995;50.842;4.456;2022-10-16T07:08:09;14.20;99.90
23637;DHT22;11995;50.842;4.456;2022-10-16T07:10:37;14.20;99.90
23637;DHT22;11995;50.842;4.456;2022-10-16T07:13:04;14.20;99.90
23637;DHT22;11995;50.842;4.456;2022-10-16T07:15:33;14.30;99.90
23637;DHT22;11995;50.842;4.456;2022-10-16T07:18:00;14.40;99.90
23637;DHT22;11995;50.842;4.456;2022-10-16T07:20:27;14.60;99.90
23637;DHT22;11995;50.842;4.456;2022-10-16T07:22:54;14.70;99.90
23637;DHT22;11995;50.842;4.456;2022-10-16T07:25:20;14.90;99.90
23637;DHT22;11995;50.842;4.456;2022-10-16T07:27:49;15.10;99.90
23637;DHT22;11995;50.842;4.456;2022-10-16T07:30:15;15.10;99.90
23637;DHT22;11995;50.842;4.456;2022-10-16T07:32:42;15.10;99.90
23637;DHT22;11995;50.842;4.456;2022-10-16T07:35:09;15.00;99.90
23637;DHT22;11995;50.842;4.456;2022-10-16T07:37:36;15.10;99.90
23637;DHT22;11995;50.842;4.456;2022-10-16T07:40:04;15.10;99.90
23637;DHT22;11995;50.842;4.456;2022-10-16T07:42:31;15.20;99.90
23637;DHT22;11995;50.842;4.456;2022-10-16T07:44:58;15.20;99.90
23637;DHT22;11995;50.842;4.456;2022-10-16T07:47:25;15.20;99.90
23637;DHT22;11995;50.842;4.456;2022-10-16T07:49:52;15.20;99.90
23637;DHT22;11995;50.842;4.456;2022-10-16T07:52:19;15.20;99.90
23637;DHT22;11995;50.842;4.456;2022-10-16T07:54:46;15.10;99.90
23637;DHT22;11995;50.842;4.456;2022-10-16T07:57:13;15.20;99.90
23637;DHT22;11995;50.842;4.456;2022-10-16T07:59:41;15.30;99.90
23637;DHT22;11995;50.842;4.456;2022-10-16T08:02:08;15.30;99.90
23637;DHT22;11995;50.842;4.456;2022-10-16T08:04:35;15.40;99.90
23637;DHT22;11995;50.842;4.456;2022-10-16T08:07:01;15.50;99.90
23637;DHT22;11995;50.842;4.456;2022-10-16T08:09:28;15.50;99.90
23637;DHT22;11995;50.842;4.456;2022-10-16T08:11:55;15.40;99.90
23637;DHT22;11995;50.842;4.456;2022-10-16T08:14:22;15.30;99.90
23637;DHT22;11995;50.842;4.456;2022-10-16T08:16:49;15.50;99.90
23637;DHT22;11995;50.842;4.456;2022-10-16T08:19:16;15.50;99.90
23637;DHT22;11995;50.842;4.456;2022-10-16T08:21:42;15.60;99.90
23637;DHT22;11995;50.842;4.456;2022-10-16T08:24:09;15.50;99.90
23637;DHT22;11995;50.842;4.456;2022-10-16T08:26:36;15.70;99.90
23637;DHT22;11995;50.842;4.456;2022-10-16T08:29:03;15.80;99.90
23637;DHT22;11995;50.842;4.456;2022-10-16T08:31:29;15.80;99.90
23637;DHT22;11995;50.842;4.456;2022-10-16T08:33:56;15.80;99.90
23637;DHT22;11995;50.842;4.456;2022-10-16T08:36:23;15.90;99.90
23637;DHT22;11995;50.842;4.456;2022-10-16T08:38:50;15.90;99.90
23637;DHT22;11995;50.842;4.456;2022-10-16T08:49:05;15.90;99.90
23637;DHT22;11995;50.842;4.456;2022-10-16T08:51:32;15.90;99.90
23637;DHT22;11995;50.842;4.456;2022-10-16T08:54:14;16.00;99.90
23637;DHT22;11995;50.842;4.456;2022-10-16T08:56:35;16.20;99.90
23637;DHT22;11995;50.842;4.456;2022-10-16T08:59:01;16.20;99.90
23637;DHT22;11995;50.842;4.456;2022-10-16T09:01:35;16.30;99.90
23637;DHT22;11995;50.842;4.456;2022-10-16T09:14:52;16.40;99.90
23637;DHT22;11995;50.842;4.456;2022-10-16T09:16:34;16.60;99.90
23637;DHT22;11995;50.842;4.456;2022-10-16T09:21:38;16.80;99.90
23637;DHT22;11995;50.842;4.456;2022-10-16T09:24:10;16.70;99.90
23637;DHT22;11995;50.842;4.456;2022-10-16T09:26:34;16.60;99.90
23637;DHT22;11995;50.842;4.456;2022-10-16T09:29:00;16.70;99.90
23637;DHT22;11995;50.842;4.456;2022-10-16T09:31:27;16.70;99.90
23637;DHT22;11995;50.842;4.456;2022-10-16T09:33:58;16.50;99.90
23637;DHT22;11995;50.842;4.456;2022-10-16T09:36:26;16.50;99.90
23637;DHT22;11995;50.842;4.456;2022-10-16T09:39:04;16.60;99.90
23637;DHT22;11995;50.842;4.456;2022-10-16T09:41:33;16.70;99.90
23637;DHT22;11995;50.842;4.456;2022-10-16T09:44:00;16.50;99.90
23637;DHT22;11995;50.842;4.456;2022-10-16T09:49:00;16.90;99.90
23637;DHT22;11995;50.842;4.456;2022-10-16T09:51:28;16.70;99.90
23637;DHT22;11995;50.842;4.456;2022-10-16T09:54:00;16.70;99.90
23637;DHT22;11995;50.842;4.456;2022-10-16T09:56:28;16.80;99.90
23637;DHT22;11995;50.842;4.456;2022-10-16T09:58:56;16.90;99.90
23637;DHT22;11995;50.842;4.456;2022-10-16T10:01:31;16.90;99.90
23637;DHT22;11995;50.842;4.456;2022-10-16T10:03:58;16.90;99.90
23637;DHT22;11995;50.842;4.456;2022-10-16T10:06:28;17.00;99.90
23637;DHT22;11995;50.842;4.456;2022-10-16T10:11:47;17.10;99.90
23637;DHT22;11995;50.842;4.456;2022-10-16T10:14:25;17.00;99.90
23637;DHT22;11995;50.842;4.456;2022-10-16T10:16:43;16.90;99.90
23637;DHT22;11995;50.842;4.456;2022-10-16T10:19:20;17.00;99.90
23637;DHT22;11995;50.842;4.456;2022-10-16T10:21:38;17.10;99.90
23637;DHT22;11995;50.842;4.456;2022-10-16T10:24:05;17.10;99.90
23637;DHT22;11995;50.842;4.456;2022-10-16T10:26:31;17.00;99.90
23637;DHT22;11995;50.842;4.456;2022-10-16T10:29:01;17.00;99.90
23637;DHT22;11995;50.842;4.456;2022-10-16T10:31:33;17.10;99.90
23637;DHT22;11995;50.842;4.456;2022-10-16T10:33:58;17.10;99.90
23637;DHT22;11995;50.842;4.456;2022-10-16T10:36:37;17.20;99.90
23637;DHT22;11995;50.842;4.456;2022-10-16T10:39:13;17.20;99.90
23637;DHT22;11995;50.842;4.456;2022-10-16T10:44:11;17.10;99.90
23637;DHT22;11995;50.842;4.456;2022-10-16T10:46:41;17.00;99.90
23637;DHT22;11995;50.842;4.456;2022-10-16T10:49:13;17.10;99.90
23637;DHT22;11995;50.842;4.456;2022-10-16T10:54:11;17.30;99.90
23637;DHT22;11995;50.842;4.456;2022-10-16T10:56:41;17.50;99.90
23637;DHT22;11995;50.842;4.456;2022-10-16T10:59:08;17.60;99.90
23637;DHT22;11995;50.842;4.456;2022-10-16T11:01:39;17.50;99.90
23637;DHT22;11995;50.842;4.456;2022-10-16T11:06:46;17.60;99.90
23637;DHT22;11995;50.842;4.456;2022-10-16T11:09:17;17.60;99.90
23637;DHT22;11995;50.842;4.456;2022-10-16T11:14:31;17.90;99.90
23637;DHT22;11995;50.842;4.456;2022-10-16T11:17:18;18.00;99.90
23637;DHT22;11995;50.842;4.456;2022-10-16T11:22:06;18.10;99.90
23637;DHT22;11995;50.842;4.456;2022-10-16T11:25:16;18.00;99.90
23637;DHT22;11995;50.842;4.456;2022-10-16T11:27:04;18.10;99.90
23637;DHT22;11995;50.842;4.456;2022-10-16T11:29:31;17.90;99.90
23637;DHT22;11995;50.842;4.456;2022-10-16T11:32:06;18.00;99.90
23637;DHT22;11995;50.842;4.456;2022-10-16T11:37:02;18.10;99.90
23637;DHT22;11995;50.842;4.456;2022-10-16T11:39:30;18.00;99.90
23637;DHT22;11995;50.842;4.456;2022-10-16T11:42:05;17.90;99.90
23637;DHT22;11995;50.842;4.456;2022-10-16T11:47:13;18.10;99.90
23637;DHT22;11995;50.842;4.456;2022-10-16T11:49:37;18.30;99.90
23637;DHT22;11995;50.842;4.456;2022-10-16T11:52:13;18.30;99.90
23637;DHT22;11995;50.842;4.456;2022-10-16T11:54:44;18.00;99.90
23637;DHT22;11995;50.842;4.456;2022-10-16T11:57:14;18.00;99.90
23637;DHT22;11995;50.842;4.456;2022-10-16T11:59:42;18.10;99.90
23637;DHT22;11995;50.842;4.456;2022-10-16T12:04:48;17.90;99.90
23637;DHT22;11995;50.842;4.456;2022-10-16T12:07:17;18.00;99.90
23637;DHT22;11995;50.842;4.456;2022-10-16T12:09:43;18.10;99.90
23637;DHT22;11995;50.842;4.456;2022-10-16T12:15:02;18.30;99.90
23637;DHT22;11995;50.842;4.456;2022-10-16T12:17:36;18.60;99.90
23637;DHT22;11995;50.842;4.456;2022-10-16T12:23:03;18.80;99.90
23637;DHT22;11995;50.842;4.456;2022-10-16T12:28:00;18.70;99.90
23637;DHT22;11995;50.842;4.456;2022-10-16T12:30:28;18.70;99.90
23637;DHT22;11995;50.842;4.456;2022-10-16T12:33:01;18.40;99.90
23637;DHT22;11995;50.842;4.456;2022-10-16T12:35:32;18.70;99.90
23637;DHT22;11995;50.842;4.456;2022-10-16T12:38:14;18.80;99.90
23637;DHT22;11995;50.842;4.456;2022-10-16T12:40:34;19.00;99.90
23637;DHT22;11995;50.842;4.456;2022-10-16T12:45:46;18.90;99.90
23637;DHT22;11995;50.842;4.456;2022-10-16T12:48:19;19.20;99.90
23637;DHT22;11995;50.842;4.456;2022-10-16T12:50:47;19.30;99.90
23637;DHT22;11995;50.842;4.456;2022-10-16T12:53:25;19.50;99.90
23637;DHT22;11995;50.842;4.456;2022-10-16T12:56:08;19.50;99.90
23637;DHT22;11995;50.842;4.456;2022-10-16T12:58:40;19.30;99.90
23637;DHT22;11995;50.842;4.456;2022-10-16T13:03:41;18.90;99.90
23637;DHT22;11995;50.842;4.456;2022-10-16T13:08:38;19.10;99.90
23637;DHT22;11995;50.842;4.456;2022-10-16T13:13:42;19.20;99.90
23637;DHT22;11995;50.842;4.456;2022-10-16T13:16:19;19.20;99.90
23637;DHT22;11995;50.842;4.456;2022-10-16T13:23:37;19.30;99.90
23637;DHT22;11995;50.842;4.456;2022-10-16T13:28:38;19.40;99.90
23637;DHT22;11995;50.842;4.456;2022-10-16T13:31:05;19.40;99.90
23637;DHT22;11995;50.842;4.456;2022-10-16T13:33:40;19.40;99.90
23637;DHT22;11995;50.842;4.456;2022-10-16T13:36:05;19.40;99.90
23637;DHT22;11995;50.842;4.456;2022-10-16T13:38:33;19.50;99.90
23637;DHT22;11995;50.842;4.456;2022-10-16T13:41:05;19.70;99.90
23637;DHT22;11995;50.842;4.456;2022-10-16T13:43:42;19.80;99.90
23637;DHT22;11995;50.842;4.456;2022-10-16T13:46:13;19.60;99.90
23637;DHT22;11995;50.842;4.456;2022-10-16T13:48:40;19.70;99.90
23637;DHT22;11995;50.842;4.456;2022-10-16T13:51:15;19.60;99.90
23637;DHT22;11995;50.842;4.456;2022-10-16T13:53:42;19.30;99.90
23637;DHT22;11995;50.842;4.456;2022-10-16T13:56:13;19.10;99.90
23637;DHT22;11995;50.842;4.456;2022-10-16T13:58:40;19.00;99.90
23637;DHT22;11995;50.842;4.456;2022-10-16T14:01:17;19.10;99.90
23637;DHT22;11995;50.842;4.456;2022-10-16T14:03:44;19.30;99.90
23637;DHT22;11995;50.842;4.456;2022-10-16T14:06:20;19.50;99.90
23637;DHT22;11995;50.842;4.456;2022-10-16T14:08:44;19.30;99.90
23637;DHT22;11995;50.842;4.456;2022-10-16T14:11:12;19.40;99.90
23637;DHT22;11995;50.842;4.456;2022-10-16T14:13:45;19.50;99.90
23637;DHT22;11995;50.842;4.456;2022-10-16T14:16:20;19.50;99.90
23637;DHT22;11995;50.842;4.456;2022-10-16T14:18:45;19.50;99.90
23637;DHT22;11995;50.842;4.456;2022-10-16T14:21:12;19.30;99.90
23637;DHT22;11995;50.842;4.456;2022-10-16T14:23:40;19.20;99.90
23637;DHT22;11995;50.842;4.456;2022-10-16T14:28:41;19.40;99.90
23637;DHT22;11995;50.842;4.456;2022-10-16T14:31:29;19.60;99.90
23637;DHT22;11995;50.842;4.456;2022-10-16T14:33:58;19.60;99.90
23637;DHT22;11995;50.842;4.456;2022-10-16T14:36:24;19.30;99.90
23637;DHT22;11995;50.842;4.456;2022-10-16T14:38:59;18.80;99.90
23637;DHT22;11995;50.842;4.456;2022-10-16T14:41:26;18.90;99.90
23637;DHT22;11995;50.842;4.456;2022-10-16T14:43:55;19.00;99.90
23637;DHT22;11995;50.842;4.456;2022-10-16T14:46:23;19.00;99.90
23637;DHT22;11995;50.842;4.456;2022-10-16T14:49:02;19.00;99.90
23637;DHT22;11995;50.842;4.456;2022-10-16T14:51:20;19.00;99.90
23637;DHT22;11995;50.842;4.456;2022-10-16T14:53:48;18.90;99.90
23637;DHT22;11995;50.842;4.456;2022-10-16T14:56:22;19.10;99.90
23637;DHT22;11995;50.842;4.456;2022-10-16T14:58:44;19.00;99.90
23637;DHT22;11995;50.842;4.456;2022-10-16T15:01:11;19.00;99.90
23637;DHT22;11995;50.842;4.456;2022-10-16T15:03:38;19.10;99.90
23637;DHT22;11995;50.842;4.456;2022-10-16T15:06:09;19.00;99.90
23637;DHT22;11995;50.842;4.456;2022-10-16T15:08:34;19.00;99.90
23637;DHT22;11995;50.842;4.456;2022-10-16T15:11:01;19.10;99.90
23637;DHT22;11995;50.842;4.456;2022-10-16T15:13:28;19.00;99.90
23637;DHT22;11995;50.842;4.456;2022-10-16T15:15:55;19.10;99.90
23637;DHT22;11995;50.842;4.456;2022-10-16T15:18:21;19.10;99.90
23637;DHT22;11995;50.842;4.456;2022-10-16T15:20:49;19.00;99.90
23637;DHT22;11995;50.842;4.456;2022-10-16T15:23:17;18.80;99.90
23637;DHT22;11995;50.842;4.456;2022-10-16T15:28:15;18.80;99.90
23637;DHT22;11995;50.842;4.456;2022-10-16T15:30:42;18.90;99.90
23637;DHT22;11995;50.842;4.456;2022-10-16T15:33:18;18.70;99.90
23637;DHT22;11995;50.842;4.456;2022-10-16T15:35:49;18.80;99.90
23637;DHT22;11995;50.842;4.456;2022-10-16T15:38:16;18.80;99.90
23637;DHT22;11995;50.842;4.456;2022-10-16T15:40:43;18.70;99.90
23637;DHT22;11995;50.842;4.456;2022-10-16T15:43:10;18.40;99.90
23637;DHT22;11995;50.842;4.456;2022-10-16T15:45:37;18.50;99.90
23637;DHT22;11995;50.842;4.456;2022-10-16T15:48:04;18.50;99.90
23637;DHT22;11995;50.842;4.456;2022-10-16T15:50:31;18.50;99.90
23637;DHT22;11995;50.842;4.456;2022-10-16T15:52:58;18.60;99.90
23637;DHT22;11995;50.842;4.456;2022-10-16T15:55:25;18.80;99.90
23637;DHT22;11995;50.842;4.456;2022-10-16T15:57:52;18.80;99.90
23637;DHT22;11995;50.842;4.456;2022-10-16T16:00:19;18.70;99.90
23637;DHT22;11995;50.842;4.456;2022-10-16T16:02:52;18.70;99.90
23637;DHT22;11995;50.842;4.456;2022-10-16T16:05:19;18.50;99.90
23637;DHT22;11995;50.842;4.456;2022-10-16T16:07:46;18.50;99.90
23637;DHT22;11995;50.842;4.456;2022-10-16T16:10:13;18.30;99.90
23637;DHT22;11995;50.842;4.456;2022-10-16T16:12:40;18.30;99.90
23637;DHT22;11995;50.842;4.456;2022-10-16T16:15:07;18.40;99.90
23637;DHT22;11995;50.842;4.456;2022-10-16T16:17:35;18.30;99.90
23637;DHT22;11995;50.842;4.456;2022-10-16T16:20:02;18.00;99.90
23637;DHT22;11995;50.842;4.456;2022-10-16T16:22:30;17.80;99.90
23637;DHT22;11995;50.842;4.456;2022-10-16T16:24:57;17.90;99.90
23637;DHT22;11995;50.842;4.456;2022-10-16T16:27:23;18.10;99.90
23637;DHT22;11995;50.842;4.456;2022-10-16T16:29:51;18.10;99.90
23637;DHT22;11995;50.842;4.456;2022-10-16T16:32:17;18.10;99.90
23637;DHT22;11995;50.842;4.456;2022-10-16T16:34:44;18.20;99.90
23637;DHT22;11995;50.842;4.456;2022-10-16T16:37:11;18.10;99.90
23637;DHT22;11995;50.842;4.456;2022-10-16T16:39:38;18.10;99.90
23637;DHT22;11995;50.842;4.456;2022-10-16T16:42:05;18.30;99.90
23637;DHT22;11995;50.842;4.456;2022-10-16T16:44:33;18.10;99.90
23637;DHT22;11995;50.842;4.456;2022-10-16T16:47:02;18.00;99.90
23637;DHT22;11995;50.842;4.456;2022-10-16T16:49:29;17.90;99.90
23637;DHT22;11995;50.842;4.456;2022-10-16T16:51:57;18.00;99.90
23637;DHT22;11995;50.842;4.456;2022-10-16T16:54:25;18.10;99.90
23637;DHT22;11995;50.842;4.456;2022-10-16T16:56:52;18.00;99.90
23637;DHT22;11995;50.842;4.456;2022-10-16T16:59:19;17.90;99.90
23637;DHT22;11995;50.842;4.456;2022-10-16T17:01:47;17.80;99.90